Terminal Aerodrome Forecast
Issued by NWS Tallahassee, FL

Home | Current Version | Previous Version | Text Only | Print | Product List | Glossary On
Versions: 1 2 3 4 5 6 7 8 9 10 11 12 13 14 15 16 17 18
047
FTUS42 KTAE 211120
TAFTLH
TAF
KTLH 211120Z 2112/2212 10008KT P6SM -SHRA VCTS BKN020CB OVC100
      TEMPO 2113/2116 2SM TSRA
     FM211600 13009G14KT P6SM -TSRA BKN040CB
     FM212100 12005KT P6SM BKN050=

USA.gov is the U.S. government's official web portal to all federal, state and local government web resources and services.